Pembroke Park, Florida
Current Conditions -  °F | °C
As of 2:53 PM on Sunday 25 Jan 2015 (Local Time) from KHWO Reporting Station
Clear Clear  
Wind Chill: 65°   Ceiling: Unl
Heat Index: 65°   Visibility: 10mi
Dew Point: 37°   Wind: 5mph
Humidity: 36%   Direction: 250°WSW
Pressure: 30.02"   Gusts: NA
Location:  25.9859°N, 80.1469°W
Report Text: KHWO 251953Z 25004KT 10SM CLR 18/03 A3002 RMK AO2 SLP164 T01830028
Loading
Personal Weather Stations






























Interactive Weather Map New forecast layout! Learn more

10-Day Weather Forecast

Advertisements
Track Severe Weather on mobile